Time;durP1;ratioP1;P1;durP2;ratioP2;P2;SDS_P1;SDS_P2;PMS_P1;PMS_P2;Temp;Humidity;BMP_temperature;BMP_pressure;BME280_temperature;BME280_humidity;BME280_pressure;Samples;Min_cycle;Max_cycle;Signal;HPM_P1;HPM_P2
2022/07/13 00:09:10;;;;;;;1.50;1.17;;;;;;;18.79;100.00;101764.75;20879481;28;20037;-74
2022/07/13 00:19:11;;;;;;;1.08;0.98;;;;;;;18.66;100.00;101745.09;20879081;28;20502;-74
2022/07/13 00:29:13;;;;;;;1.00;0.90;;;;;;;18.68;100.00;101744.03;20812287;28;20041;-74
2022/07/13 00:39:16;;;;;;;1.63;1.15;;;;;;;18.81;100.00;101738.53;20809448;28;20103;-74
2022/07/13 00:49:17;;;;;;;1.20;1.10;;;;;;;18.81;100.00;101730.44;20811178;28;20048;-75
2022/07/13 00:59:20;;;;;;;2.60;1.45;;;;;;;18.81;100.00;101722.34;20792083;28;20128;-74
2022/07/13 01:09:25;;;;;;;1.20;1.10;;;;;;;18.80;100.00;101709.81;20811784;28;20132;-75
2022/07/13 01:19:27;;;;;;;1.40;1.30;;;;;;;18.76;100.00;101694.00;20790885;28;20465;-74
2022/07/13 01:29:30;;;;;;;1.30;1.20;;;;;;;18.64;100.00;101658.06;20965053;28;20049;-74
2022/07/13 01:39:32;;;;;;;1.73;1.50;;;;;;;18.79;100.00;101683.84;20972027;28;20044;-74
2022/07/13 01:49:33;;;;;;;2.35;1.50;;;;;;;18.80;100.00;101676.59;20971095;28;20055;-74
2022/07/13 01:59:35;;;;;;;2.00;1.80;;;;;;;18.80;100.00;101674.75;20969111;28;20044;-74
2022/07/13 02:09:37;;;;;;;1.95;1.60;;;;;;;18.81;100.00;101627.03;20966005;28;20110;-74
2022/07/13 02:19:39;;;;;;;2.00;1.80;;;;;;;18.79;100.00;101643.38;20960153;28;20040;-74
2022/07/13 02:29:40;;;;;;;1.83;1.73;;;;;;;18.74;100.00;101642.00;20967631;28;20049;-75
2022/07/13 02:39:42;;;;;;;1.90;1.70;;;;;;;18.53;100.00;101607.69;20949149;28;20040;-74
2022/07/13 02:49:44;;;;;;;2.30;1.80;;;;;;;18.80;100.00;101633.41;20937042;28;20045;-75
2022/07/13 02:59:46;;;;;;;2.17;1.92;;;;;;;18.75;100.00;101612.19;20884833;28;20045;-76
2022/07/13 03:09:48;;;;;;;3.28;2.17;;;;;;;18.85;100.00;101612.31;20909245;28;20145;-75
2022/07/13 03:19:58;;;;;;;3.33;2.08;;;;;;;18.88;100.00;101606.66;20817975;28;20497;-75
2022/07/13 03:30:00;;;;;;;2.50;2.30;;;;;;;18.73;100.00;101580.97;20773564;28;20045;-74
2022/07/13 03:40:05;;;;;;;2.95;2.47;;;;;;;18.89;100.00;101592.19;20772940;28;20088;-74
2022/07/13 03:50:07;;;;;;;3.20;2.67;;;;;;;18.91;100.00;101579.44;20777662;28;20049;-74
2022/07/13 04:00:17;;;;;;;3.10;2.53;;;;;;;18.94;100.00;101584.56;20773321;28;20053;-74
2022/07/13 04:10:24;;;;;;;3.45;2.30;;;;;;;18.96;100.00;101561.03;20806810;28;20056;-74
2022/07/13 04:20:26;;;;;;;3.03;2.35;;;;;;;18.97;100.00;101572.69;20829709;28;22677;-74
2022/07/13 04:30:29;;;;;;;3.35;2.85;;;;;;;18.73;100.00;101529.72;20885232;28;20473;-74
2022/07/13 04:40:33;;;;;;;3.17;2.75;;;;;;;18.98;100.00;101559.09;20876073;28;20047;-75
2022/07/13 04:50:35;;;;;;;3.95;2.80;;;;;;;18.85;100.00;101520.59;20866437;28;20068;-76
2022/07/13 05:00:38;;;;;;;4.57;2.70;;;;;;;19.03;100.00;101553.31;20867783;28;20603;-75
2022/07/13 05:11:00;;;;;;;6.85;2.83;;;;;;;18.93;100.00;101539.69;20813512;28;20698;-74
2022/07/13 05:21:03;;;;;;;4.53;2.72;;;;;;;18.92;100.00;101524.50;20784100;28;20049;-75
2022/07/13 05:31:04;;;;;;;3.33;2.83;;;;;;;19.11;100.00;101544.59;20791000;28;20045;-74
2022/07/13 05:41:08;;;;;;;5.68;3.22;;;;;;;19.11;100.00;101552.69;20789819;28;20456;-74
2022/07/13 05:51:11;;;;;;;6.22;2.92;;;;;;;19.09;100.00;101550.09;20883735;28;20049;-74
2022/07/13 06:01:33;;;;;;;3.58;2.90;;;;;;;19.09;100.00;101538.47;20808015;28;20505;-74
2022/07/13 06:11:35;;;;;;;4.32;2.92;;;;;;;18.95;100.00;101516.13;20877748;28;20120;-74
2022/07/13 06:21:36;;;;;;;2.92;2.63;;;;;;;19.07;100.00;101529.63;20878016;28;20051;-74
2022/07/13 06:31:38;;;;;;;3.58;2.75;;;;;;;19.02;100.00;101545.38;20864600;28;20154;-75
2022/07/13 06:41:40;;;;;;;3.60;2.72;;;;;;;19.07;100.00;101548.53;20860436;28;20045;-75
2022/07/13 06:51:41;;;;;;;3.05;2.75;;;;;;;19.07;100.00;101540.44;20962769;28;20105;-75
2022/07/13 07:01:43;;;;;;;2.58;2.38;;;;;;;19.05;100.00;101532.47;20964016;28;20060;-75
2022/07/13 07:11:46;;;;;;;3.47;2.47;;;;;;;19.06;100.00;101534.16;20938856;28;20500;-75
2022/07/13 07:21:48;;;;;;;2.58;2.38;;;;;;;19.08;100.00;101521.41;20943393;28;20504;-75
2022/07/13 07:31:49;;;;;;;2.97;2.67;;;;;;;19.08;100.00;101525.97;20962613;28;20090;-75
2022/07/13 07:41:51;;;;;;;3.45;2.80;;;;;;;19.08;100.00;101520.56;20955969;28;20057;-75
2022/07/13 07:51:53;;;;;;;2.90;2.60;;;;;;;19.06;100.00;101527.94;20813394;28;20402;-75
2022/07/13 08:02:15;;;;;;;3.15;2.17;;;;;;;19.06;100.00;101517.13;20871816;28;20052;-75
2022/07/13 08:12:16;;;;;;;3.10;2.50;;;;;;;18.92;100.00;101486.72;20867129;28;20045;-75
2022/07/13 08:22:18;;;;;;;2.88;2.65;;;;;;;18.93;100.00;101485.72;20797454;28;20055;-75
2022/07/13 08:32:19;;;;;;;2.97;2.70;;;;;;;19.17;100.00;101508.97;20866346;28;20449;-75
2022/07/13 08:42:21;;;;;;;3.83;2.75;;;;;;;19.20;100.00;101508.72;20866016;28;20087;-75
2022/07/13 08:52:25;;;;;;;3.03;2.42;;;;;;;19.04;100.00;101470.53;20868065;28;20052;-75
2022/07/13 09:02:27;;;;;;;2.70;2.50;;;;;;;19.25;100.00;101506.47;20865602;28;20070;-74
2022/07/13 09:12:29;;;;;;;3.33;2.70;;;;;;;19.26;100.00;101502.78;20846182;28;20049;-74
2022/07/13 09:22:30;;;;;;;6.43;2.90;;;;;;;19.27;100.00;101509.06;20853489;28;20052;-74
2022/07/13 09:32:32;;;;;;;4.45;3.10;;;;;;;19.26;100.00;101510.88;20790191;28;20112;-74
2022/07/13 09:42:34;;;;;;;4.18;2.65;;;;;;;19.26;100.00;101497.41;20779949;28;20522;-74
2022/07/13 09:52:35;;;;;;;4.40;2.72;;;;;;;19.26;100.00;101508.19;20857326;28;20505;-74
2022/07/13 10:02:41;;;;;;;2.97;2.67;;;;;;;19.23;100.00;101505.75;20846238;28;20060;-74
2022/07/13 10:12:44;;;;;;;3.28;2.95;;;;;;;19.19;100.00;101496.22;20788751;28;20057;-74
2022/07/13 10:22:48;;;;;;;3.28;2.97;;;;;;;19.26;100.00;101516.28;20785092;28;20111;-74
2022/07/13 10:32:49;;;;;;;2.73;2.47;;;;;;;19.24;100.00;101512.88;20773347;28;20050;-74
2022/07/13 10:42:54;;;;;;;2.67;2.47;;;;;;;19.27;100.00;101536.06;20797931;28;20095;-74
2022/07/13 10:52:56;;;;;;;3.47;3.03;;;;;;;19.27;100.00;101531.50;20838175;28;20140;-74
2022/07/13 11:03:37;;;;;;;3.50;2.50;;;;;;;19.27;100.00;101547.69;20829221;28;20052;-76
2022/07/13 11:13:40;;;;;;;4.50;2.47;;;;;;;19.27;100.00;101536.91;20849116;28;20040;-76
2022/07/13 11:34:02;;;;;;;3.58;2.58;;;;;;;19.12;100.00;101538.19;20768844;28;20054;-75
2022/07/13 11:44:04;;;;;;;2.78;2.55;;;;;;;19.27;100.00;101546.84;20767711;28;20131;-76
2022/07/13 11:54:08;;;;;;;2.70;2.50;;;;;;;19.26;100.00;101559.47;20825407;28;20051;-76
2022/07/13 12:04:09;;;;;;;2.85;2.50;;;;;;;19.20;100.00;101546.50;20771169;28;20065;-76
2022/07/13 12:14:12;;;;;;;3.55;2.45;;;;;;;19.26;100.00;101555.94;20822203;28;20378;-75
2022/07/13 12:24:17;;;;;;;2.55;2.13;;;;;;;19.09;100.00;101530.38;20852234;28;20037;-76
2022/07/13 12:34:20;;;;;;;;;;;;;;;19.25;100.00;101568.56;20869850;28;20390;-75
2022/07/13 12:44:31;;;;;;;2.53;2.33;;;;;;;19.25;100.00;101581.22;20860570;28;20003;-76
2022/07/13 12:54:46;;;;;;;2.30;2.10;;;;;;;19.24;100.00;101596.56;20814039;28;20077;-75
2022/07/13 13:04:48;;;;;;;3.92;1.95;;;;;;;19.24;100.00;101612.75;20863788;28;20069;-75
2022/07/13 13:14:49;;;;;;;2.22;2.05;;;;;;;19.23;100.00;101621.84;20865741;28;20049;-74
2022/07/13 13:24:56;;;;;;;3.70;2.20;;;;;;;19.03;100.00;101584.84;20818176;28;20053;-75
2022/07/13 13:34:58;;;;;;;2.20;2.00;;;;;;;19.22;100.00;101624.63;20786779;28;20057;-74
2022/07/13 13:44:59;;;;;;;2.65;2.25;;;;;;;19.22;100.00;101630.03;20778419;28;20045;-75
2022/07/13 13:55:01;;;;;;;3.40;1.98;;;;;;;19.21;100.00;101621.09;20855081;28;20057;-75
2022/07/13 14:05:03;;;;;;;2.10;1.90;;;;;;;19.21;100.00;101636.44;20859841;28;20524;-74
2022/07/13 14:15:06;;;;;;;2.00;1.80;;;;;;;19.22;100.00;101630.03;20855980;28;20057;-75
2022/07/13 14:25:08;;;;;;;2.88;1.90;;;;;;;19.17;100.00;101616.94;20858151;28;20053;-74
2022/07/13 14:35:11;;;;;;;2.15;1.95;;;;;;;19.09;100.00;101616.72;20854046;28;20067;-74
2022/07/13 14:45:13;;;;;;;2.10;1.70;;;;;;;19.20;100.00;101667.97;20794419;28;20128;-74
2022/07/13 14:55:16;;;;;;;2.90;2.00;;;;;;;19.20;100.00;101659.88;20860328;28;20049;-74
2022/07/13 15:05:17;;;;;;;2.15;1.88;;;;;;;19.22;100.00;101674.09;20806253;28;20136;-74
2022/07/13 15:15:19;;;;;;;2.35;1.70;;;;;;;19.26;100.00;101669.31;20791322;28;20493;-74
2022/07/13 15:25:30;;;;;;;4.40;1.65;;;;;;;19.16;100.00;101655.72;20850816;28;20048;-74
2022/07/13 15:35:32;;;;;;;2.50;1.80;;;;;;;19.15;100.00;101662.09;20850455;28;20416;-74
2022/07/13 15:45:34;;;;;;;2.20;2.00;;;;;;;19.33;100.00;101697.53;20810745;28;20038;-75
2022/07/13 15:55:35;;;;;;;3.20;1.73;;;;;;;19.35;100.00;101710.88;20781458;28;20071;-75
2022/07/13 16:05:37;;;;;;;3.47;1.63;;;;;;;19.33;100.00;101712.84;20777907;28;20488;-76
2022/07/13 16:15:38;;;;;;;3.20;2.08;;;;;;;19.18;100.00;101696.94;20769777;28;20177;-76
2022/07/13 16:25:40;;;;;;;3.25;1.60;;;;;;;19.10;100.00;101678.66;20783318;28;20054;-77
2022/07/13 16:35:42;;;;;;;3.03;1.77;;;;;;;19.24;100.00;101715.31;20782776;28;20053;-75
2022/07/13 16:45:43;;;;;;;2.08;1.65;;;;;;;19.26;100.00;101723.31;20828527;28;20056;-75
2022/07/13 16:55:45;;;;;;;3.30;1.90;;;;;;;19.08;100.00;101698.69;20864201;28;20134;-77
2022/07/13 17:05:46;;;;;;;3.40;1.98;;;;;;;19.17;100.00;101721.34;20861957;28;25112;-75
2022/07/13 17:15:48;;;;;;;3.50;1.90;;;;;;;19.24;100.00;101742.31;20867874;28;20087;-74
2022/07/13 17:25:50;;;;;;;2.67;1.73;;;;;;;19.23;100.00;101747.88;20863761;28;20470;-75
2022/07/13 17:35:51;;;;;;;1.60;1.40;;;;;;;19.20;100.00;101762.44;20840689;28;20132;-74
2022/07/13 17:45:53;;;;;;;3.17;1.70;;;;;;;19.09;100.00;101755.22;20885013;28;20051;-75
2022/07/13 17:55:55;;;;;;;3.35;1.40;;;;;;;19.18;100.00;101760.84;20889306;28;20044;-74
2022/07/13 18:05:57;;;;;;;3.85;1.60;;;;;;;19.17;100.00;101773.50;20905282;28;20583;-74
2022/07/13 18:15:58;;;;;;;4.25;2.00;;;;;;;19.15;99.84;101788.09;20891714;28;20037;-75
2022/07/13 18:26:01;;;;;;;2.80;1.60;;;;;;;19.14;99.88;101789.94;20801773;28;20046;-75
2022/07/13 18:36:03;;;;;;;2.67;1.60;;;;;;;18.87;99.54;101758.72;20799709;28;20046;-75
2022/07/13 18:46:05;;;;;;;2.58;1.33;;;;;;;19.11;99.82;101801.81;20789888;28;20502;-75
2022/07/13 18:56:08;;;;;;;3.20;1.33;;;;;;;19.06;99.46;101785.16;20866291;28;20471;-74
2022/07/13 19:06:10;;;;;;;4.47;1.50;;;;;;;19.10;99.85;101800.13;20874753;28;20033;-75
2022/07/13 19:16:12;;;;;;;3.50;1.67;;;;;;;19.09;99.88;101792.16;20867626;28;20054;-75
2022/07/13 19:36:33;;;;;;;3.80;1.50;;;;;;;19.07;99.20;101811.16;20877633;28;20053;-75
2022/07/13 19:46:35;;;;;;;3.30;1.63;;;;;;;19.07;99.23;101816.56;20858188;28;20048;-75
2022/07/13 19:56:36;;;;;;;2.92;1.73;;;;;;;19.07;98.70;101823.81;20873744;28;20040;-75
2022/07/13 20:06:38;;;;;;;5.72;2.15;;;;;;;19.06;98.50;101825.63;20874895;28;20407;-75
2022/07/13 20:16:39;;;;;;;3.72;1.45;;;;;;;19.04;98.60;101830.28;20836560;28;20049;-75
2022/07/13 20:26:41;;;;;;;3.03;1.40;;;;;;;19.05;98.46;101855.44;20834830;28;20047;-75
2022/07/13 20:36:43;;;;;;;2.90;1.30;;;;;;;18.89;98.23;101840.41;20832455;28;20048;-75
2022/07/13 20:46:45;;;;;;;2.35;1.20;;;;;;;19.03;98.11;101857.41;20891039;28;20077;-75
2022/07/13 20:56:47;;;;;;;4.20;1.42;;;;;;;19.03;98.05;101862.81;20886796;28;20535;-74
2022/07/13 21:06:49;;;;;;;4.03;1.58;;;;;;;19.02;98.23;101863.78;20886116;28;20409;-75
2022/07/13 21:16:50;;;;;;;3.60;1.20;;;;;;;19.02;97.72;101866.50;20868544;28;20057;-75
2022/07/13 21:26:52;;;;;;;4.13;1.60;;;;;;;19.01;97.60;101880.97;20872050;28;20185;-75
2022/07/13 21:36:53;;;;;;;3.67;1.25;;;;;;;19.01;97.19;101872.88;20889262;28;20518;-74
2022/07/13 21:46:55;;;;;;;5.05;2.08;;;;;;;18.98;97.13;101855.91;20889057;28;20076;-75
2022/07/13 21:56:57;;;;;;;2.80;1.33;;;;;;;18.97;96.95;101859.59;20887768;28;20045;-74
2022/07/13 22:07:23;;;;;;;2.78;1.40;;;;;;;18.98;96.73;101852.38;20869985;28;20131;-75
2022/07/13 22:18:02;;;;;;;2.50;1.33;;;;;;;18.96;96.42;101838.94;20885057;28;20045;-75
2022/07/13 22:28:44;;;;;;;2.42;1.20;;;;;;;18.94;96.53;101846.31;20884165;28;20048;-74
2022/07/13 22:39:23;;;;;;;3.47;1.10;;;;;;;18.94;96.38;101843.59;20883020;28;20543;-75
2022/07/13 22:50:04;;;;;;;2.65;1.38;;;;;;;18.93;95.93;101854.53;20896306;28;20056;-75
2022/07/13 23:00:43;;;;;;;2.38;1.08;;;;;;;18.92;95.78;101850.97;20965093;28;20068;-75
2022/07/13 23:11:22;;;;;;;2.38;1.27;;;;;;;18.91;95.75;101854.63;20965414;28;20044;-75
2022/07/13 23:22:01;;;;;;;1.60;1.20;;;;;;;18.91;95.45;101833.06;20964784;28;20053;-74
2022/07/13 23:32:12;;;;;;;2.72;1.20;;;;;;;18.90;95.31;101823.25;20964592;28;20048;-75
2022/07/13 23:42:14;;;;;;;3.30;1.30;;;;;;;18.79;95.15;101807.06;20946740;28;20091;-75
2022/07/13 23:52:16;;;;;;;4.10;1.13;;;;;;;18.88;94.86;101817.13;20946473;28;20094;-75
